Terminal Aerodrome Forecast
Issued by NWS Grand Forks, ND

Home | Current Version | Previous Version | Text Only | Print | Product List | Glossary Off
Versions: 1 2 3 4 5 6 7 8 9 10 11 12 13 14 15 16

166
FTUS43 KFGF 202340
TAFFAR
TAF
KFAR 202340Z 2100/2124 14010KT P6SM SCT025
     FM210700 VRB06KT P6SM SCT250
     FM211400 35007KT P6SM SCT200=

USA.gov is the U.S. government's official web portal to all federal, state and local government web resources and services.